NORTHEAST SUFFOLK  -  Frost Advisory Frost Advisory        NORTHWEST SUFFOLK  -  Frost Advisory Frost Advisory        SOUTHEAST SUFFOLK  -  Frost Advisory Frost Advisory        SOUTHWEST SUFFOLK  -  Frost Advisory Frost Advisory      

Active alerts

Northwest Suffolk
  Details for Northwest Suffolk Frost Advisory
Southwest Suffolk
  Details for Southwest Suffolk Frost Advisory
Northeast Suffolk
  Details for Northeast Suffolk Frost Advisory
Southeast Suffolk
  Details for Southeast Suffolk Frost Advisory


WXM80 ListenWXM80 Stop

You find our weather info also at:

UK Metoffice

WeatherCloud

Weather Underground

Northeastern Weather Network

AWEKAS

Citizen Weather Observer Program (CWOP)

HAMweather, WeatherForYou, PWS Weather


Weather Underground History page Text

Daily Summary for March 13, 2016 Units:  English    Metric   Both
« Previous Day
Next Day »
Daily Weekly Monthly Yearly Custom
  High: Low: Average:
Temperature: 62.7 °F 49.2 °F 55.1 °F
Dew Point: 44.2 °F 30.3 °F 38.7 °F
Humidity: 79 % 33 % 56 %
Wind Speed: 7.4 mph 0.0 mph 1.9 mph
Wind Gust: 9.2 mph - -
Wind:- - South
Pressure: 30.10 in 29.93 in -
Precipitation: 0.00 in    
Historical Graphs
 
 
Tabular Data for March 13, 2016
Time Temperature Dew Point Pressure Wind Wind Speed Wind Gust Humidity Rainfall Rate (Hourly)
00:01 50.4 °F 42.8 °F 29.97 in WSW 2.5 mph 3.5 mph 75 % 0.00 in
00:06 50.3 °F 43.0 °F 29.97 in WSW 2.5 mph 3.5 mph 76 % 0.00 in
00:11 50.2 °F 42.9 °F 29.97 in SW 2.7 mph 4.6 mph 76 % 0.00 in
00:16 50.1 °F 42.8 °F 29.97 in SW 4.2 mph 8.1 mph 76 % 0.00 in
00:21 50.1 °F 42.8 °F 29.97 in SSW 0.4 mph 3.5 mph 76 % 0.00 in
00:26 50.0 °F 42.7 °F 29.96 in WSW 3.5 mph 4.6 mph 76 % 0.00 in
00:31 50.0 °F 42.7 °F 29.96 in SSW 4.4 mph 8.1 mph 76 % 0.00 in
00:36 50.0 °F 42.7 °F 29.96 in SW 1.2 mph 4.6 mph 76 % 0.00 in
00:41 50.0 °F 42.7 °F 29.96 in WSW 4.7 mph 6.9 mph 76 % 0.00 in
00:47 50.0 °F 42.7 °F 29.96 in SW 2.2 mph 4.0 mph 76 % 0.00 in
00:52 50.1 °F 42.8 °F 29.96 in SW 2.3 mph 3.5 mph 76 % 0.00 in
00:57 50.1 °F 42.8 °F 29.96 in WSW 2.9 mph 5.0 mph 76 % 0.00 in
01:02 50.1 °F 42.8 °F 29.96 in West 4.5 mph 6.9 mph 76 % 0.00 in
01:07 50.2 °F 42.9 °F 29.97 in SW 1.8 mph 3.5 mph 76 % 0.00 in
01:12 50.1 °F 42.8 °F 29.97 in WSW 0.9 mph 3.0 mph 76 % 0.00 in
01:17 50.1 °F 42.8 °F 29.96 in WSW 0.3 mph 3.5 mph 76 % 0.00 in
01:22 50.1 °F 42.8 °F 29.96 in WSW 0.9 mph 2.0 mph 76 % 0.00 in
01:27 50.1 °F 42.8 °F 29.96 in SW 1.1 mph 2.0 mph 76 % 0.00 in
01:32 49.9 °F 42.6 °F 29.95 in SSW 2.0 mph 3.5 mph 76 % 0.00 in
01:38 49.8 °F 42.5 °F 29.95 in WSW 4.2 mph 4.2 mph 76 % 0.00 in
01:48 49.6 °F 42.7 °F 29.95 in SW 1.2 mph 2.3 mph 77 % 0.00 in
01:53 49.4 °F 42.5 °F 29.94 in SSW 2.8 mph 3.5 mph 77 % 0.00 in
01:58 49.3 °F 42.4 °F 29.94 in SSW 2.2 mph 4.6 mph 77 % 0.00 in
03:03 49.3 °F 42.7 °F 29.94 in SW 3.3 mph 6.9 mph 78 % 0.00 in
03:08 49.2 °F 42.6 °F 29.93 in SW 4.3 mph 8.1 mph 78 % 0.00 in
03:13 49.2 °F 42.6 °F 29.94 in SW 3.5 mph 5.8 mph 78 % 0.00 in
03:18 49.2 °F 42.6 °F 29.94 in SW 2.8 mph 5.8 mph 78 % 0.00 in
03:23 49.3 °F 42.7 °F 29.93 in SSW 3.4 mph 3.5 mph 78 % 0.00 in
03:29 49.4 °F 42.8 °F 29.93 in SW 3.0 mph 4.0 mph 78 % 0.00 in
03:34 49.4 °F 42.8 °F 29.93 in WSW 2.3 mph 3.5 mph 78 % 0.00 in
03:39 49.5 °F 42.9 °F 29.93 in West 2.8 mph 3.5 mph 78 % 0.00 in
03:44 49.6 °F 43.0 °F 29.93 in WSW 2.7 mph 4.6 mph 78 % 0.00 in
03:49 49.6 °F 43.0 °F 29.93 in SW 2.7 mph 3.5 mph 78 % 0.00 in
03:54 49.6 °F 42.7 °F 29.93 in WSW 4.1 mph 6.0 mph 77 % 0.00 in
03:59 49.6 °F 42.7 °F 29.93 in SW 3.2 mph 4.6 mph 77 % 0.00 in
04:04 49.6 °F 42.7 °F 29.93 in WSW 4.8 mph 7.0 mph 77 % 0.00 in
04:09 49.6 °F 42.7 °F 29.93 in SW 3.3 mph 5.8 mph 77 % 0.00 in
04:15 49.7 °F 42.8 °F 29.93 in SSW 4.0 mph 6.9 mph 77 % 0.00 in
04:20 49.7 °F 42.8 °F 29.94 in SW 4.5 mph 6.0 mph 77 % 0.00 in
04:25 49.7 °F 42.8 °F 29.94 in WSW 2.2 mph 5.8 mph 77 % 0.00 in
04:30 49.8 °F 42.9 °F 29.94 in WSW 1.1 mph 3.5 mph 77 % 0.00 in
04:35 49.8 °F 42.9 °F 29.94 in WSW 2.6 mph 4.6 mph 77 % 0.00 in
04:40 49.8 °F 42.9 °F 29.94 in West 1.2 mph 5.0 mph 77 % 0.00 in
04:45 49.9 °F 43.0 °F 29.94 in West 3.2 mph 4.6 mph 77 % 0.00 in
04:50 50.0 °F 43.1 °F 29.94 in SW 3.9 mph 6.0 mph 77 % 0.00 in
04:55 50.0 °F 42.7 °F 29.94 in SW 3.1 mph 5.0 mph 76 % 0.00 in
05:00 50.1 °F 42.8 °F 29.94 in WSW 1.7 mph 3.5 mph 76 % 0.00 in
05:06 50.1 °F 42.8 °F 29.94 in WSW 2.7 mph 4.6 mph 76 % 0.00 in
05:11 50.1 °F 42.8 °F 29.94 in WSW 2.7 mph 3.5 mph 76 % 0.00 in
05:16 50.1 °F 42.8 °F 29.94 in WSW 4.8 mph 8.1 mph 76 % 0.00 in
05:21 50.1 °F 42.8 °F 29.95 in SW 3.1 mph 5.0 mph 76 % 0.00 in
05:26 50.1 °F 42.8 °F 29.95 in WSW 3.3 mph 3.5 mph 76 % 0.00 in
05:31 50.2 °F 42.9 °F 29.95 in SSW 1.8 mph 3.5 mph 76 % 0.00 in
05:36 50.2 °F 42.9 °F 29.95 in SW 3.2 mph 6.9 mph 76 % 0.00 in
05:41 50.2 °F 42.9 °F 29.94 in West 3.1 mph 6.0 mph 76 % 0.00 in
05:46 50.3 °F 43.0 °F 29.95 in SW 3.9 mph 5.0 mph 76 % 0.00 in
05:51 50.3 °F 42.7 °F 29.94 in WSW 3.6 mph 4.6 mph 75 % 0.00 in
05:57 50.3 °F 42.7 °F 29.94 in SW 3.2 mph 5.8 mph 75 % 0.00 in
06:02 50.3 °F 42.7 °F 29.95 in SW 2.4 mph 3.5 mph 75 % 0.00 in
06:07 50.2 °F 42.6 °F 29.95 in SW 3.5 mph 4.6 mph 75 % 0.00 in
06:12 50.1 °F 42.8 °F 29.96 in SW 2.6 mph 5.8 mph 76 % 0.00 in
06:22 50.0 °F 42.7 °F 29.96 in WSW 4.2 mph 8.1 mph 76 % 0.00 in
06:27 49.9 °F 42.6 °F 29.96 in WSW 4.2 mph 6.0 mph 76 % 0.00 in
06:32 49.8 °F 42.5 °F 29.96 in WSW 4.8 mph 6.9 mph 76 % 0.00 in
06:37 49.7 °F 42.4 °F 29.96 in WSW 2.9 mph 5.8 mph 76 % 0.00 in
06:42 49.7 °F 42.4 °F 29.96 in WSW 3.2 mph 4.6 mph 76 % 0.00 in
06:48 49.6 °F 42.3 °F 29.96 in WSW 3.2 mph 3.5 mph 76 % 0.00 in
06:53 49.5 °F 42.2 °F 29.97 in WSW 1.6 mph 3.5 mph 76 % 0.00 in
06:58 49.4 °F 42.1 °F 29.97 in WSW 2.4 mph 3.5 mph 76 % 0.00 in
07:03 49.3 °F 42.1 °F 29.98 in SW 5.1 mph 6.9 mph 76 % 0.00 in
07:08 49.2 °F 42.0 °F 29.98 in WSW 3.1 mph 6.9 mph 76 % 0.00 in
07:13 49.2 °F 42.0 °F 29.98 in WSW 2.1 mph 3.5 mph 76 % 0.00 in
07:18 49.2 °F 42.0 °F 29.98 in WSW 1.9 mph 3.5 mph 76 % 0.00 in
07:23 49.2 °F 42.0 °F 29.99 in WSW 0.7 mph 1.2 mph 76 % 0.00 in
07:28 49.2 °F 42.0 °F 29.98 in WSW 1.2 mph 2.3 mph 76 % 0.00 in
07:33 49.2 °F 42.0 °F 29.98 in WSW 1.0 mph 1.2 mph 76 % 0.00 in
07:39 49.2 °F 42.0 °F 29.98 in WSW 1.4 mph 2.3 mph 76 % 0.00 in
07:44 49.2 °F 42.0 °F 29.99 in WSW 1.5 mph 3.5 mph 76 % 0.00 in
07:49 49.2 °F 42.0 °F 29.99 in WSW 1.3 mph 2.3 mph 76 % 0.00 in
07:54 49.3 °F 42.1 °F 29.99 in WSW 1.1 mph 2.3 mph 76 % 0.00 in
07:59 49.4 °F 42.1 °F 29.99 in West 0.7 mph 3.5 mph 76 % 0.00 in
08:04 49.6 °F 42.3 °F 30.00 in WSW 2.0 mph 3.5 mph 76 % 0.00 in
08:09 49.7 °F 42.4 °F 30.00 in Calm     76 % 0.00 in
08:14 49.9 °F 42.3 °F 29.99 in Calm     75 % 0.00 in
08:19 50.1 °F 43.5 °F 29.99 in Calm     78 % 0.00 in
08:24 50.3 °F 43.7 °F 29.99 in Calm     78 % 0.00 in
08:30 50.5 °F 44.2 °F 30.00 in WSW 0.6 mph 2.0 mph 79 % 0.00 in
08:35 50.8 °F 43.8 °F 30.00 in WSW 0.5 mph 3.5 mph 77 % 0.00 in
08:40 51.1 °F 43.1 °F 30.00 in WSW 1.1 mph 3.5 mph 74 % 0.00 in
08:45 51.7 °F 43.0 °F 30.00 in NW 2.0 mph 3.5 mph 72 % 0.00 in
08:50 52.2 °F 42.7 °F 30.00 in NW 0.4 mph 2.3 mph 70 % 0.00 in
08:55 52.7 °F 42.4 °F 30.00 in WNW 1.3 mph 3.5 mph 68 % 0.00 in
09:00 53.1 °F 42.4 °F 30.00 in NW 0.4 mph 2.3 mph 67 % 0.00 in
09:05 53.5 °F 42.4 °F 30.01 in NW 0.3 mph 1.2 mph 66 % 0.00 in
09:10 53.9 °F 42.4 °F 30.01 in WNW 0.5 mph 1.2 mph 65 % 0.00 in
09:15 54.1 °F 42.6 °F 30.01 in Calm     65 % 0.00 in
09:21 54.5 °F 42.2 °F 30.01 in WNW 0.2 mph 2.3 mph 63 % 0.00 in
09:26 54.8 °F 41.6 °F 30.02 in NW 0.6 mph 3.5 mph 61 % 0.00 in
09:31 55.2 °F 41.5 °F 30.01 in NW 1.3 mph 3.5 mph 60 % 0.00 in
09:36 55.5 °F 41.0 °F 30.02 in NNW 0.6 mph 2.3 mph 58 % 0.00 in
09:41 55.8 °F 41.2 °F 30.02 in WNW 2.6 mph 4.6 mph 58 % 0.00 in
09:46 56.0 °F 41.0 °F 30.02 in WNW 0.5 mph 3.5 mph 57 % 0.00 in
09:51 56.1 °F 41.5 °F 30.02 in WNW 0.7 mph 3.5 mph 58 % 0.00 in
09:56 56.2 °F 40.7 °F 30.02 in WNW 1.5 mph 4.0 mph 56 % 0.00 in
10:01 56.4 °F 41.3 °F 30.02 in WNW 0.5 mph 1.2 mph 57 % 0.00 in
10:06 56.5 °F 41.4 °F 30.02 in WNW 1.0 mph 2.3 mph 57 % 0.00 in
10:12 56.6 °F 40.6 °F 30.02 in NNW 1.3 mph 3.5 mph 55 % 0.00 in
10:17 56.8 °F 41.7 °F 30.02 in NNW 1.3 mph 3.5 mph 57 % 0.00 in
10:22 57.0 °F 40.5 °F 30.02 in North 3.4 mph 4.6 mph 54 % 0.00 in
10:27 57.2 °F 41.2 °F 30.02 in WNW 1.9 mph 3.5 mph 55 % 0.00 in
10:29 57.3 °F 41.3 °F 30.02 in NW 0.5 mph 3.5 mph 55 % 0.00 in
10:34 57.5 °F 41.4 °F 30.02 in NNW 1.5 mph 4.0 mph 55 % 0.00 in
10:39 57.7 °F 41.2 °F 30.03 in NNW 1.5 mph 3.5 mph 54 % 0.00 in
10:44 57.8 °F 40.8 °F 30.03 in NNW 0.8 mph 2.3 mph 53 % 0.00 in
10:49 58.0 °F 41.4 °F 30.03 in NNW 0.7 mph 2.0 mph 54 % 0.00 in
10:54 58.1 °F 40.6 °F 30.03 in NNW 2.1 mph 3.5 mph 52 % 0.00 in
10:59 58.2 °F 40.1 °F 30.03 in NNW 1.3 mph 3.5 mph 51 % 0.00 in
11:05 58.2 °F 40.1 °F 30.03 in North 1.2 mph 3.5 mph 51 % 0.00 in
11:10 58.3 °F 40.2 °F 30.03 in NNW 2.3 mph 2.3 mph 51 % 0.00 in
11:15 58.4 °F 39.8 °F 30.03 in NW 1.5 mph 3.5 mph 50 % 0.00 in
11:20 58.5 °F 40.4 °F 30.03 in NW 1.3 mph 3.5 mph 51 % 0.00 in
11:25 58.6 °F 40.0 °F 30.03 in NNE 0.7 mph 3.5 mph 50 % 0.00 in
11:30 58.6 °F 41.0 °F 30.03 in NNE 0.3 mph 1.2 mph 52 % 0.00 in
11:35 58.6 °F 40.5 °F 30.03 in North 0.4 mph 2.3 mph 51 % 0.00 in
11:40 58.7 °F 39.6 °F 30.03 in North 1.6 mph 3.5 mph 49 % 0.00 in
11:45 58.8 °F 39.1 °F 30.03 in North 1.7 mph 4.6 mph 48 % 0.00 in
11:50 58.9 °F 39.2 °F 30.04 in North 3.5 mph 4.6 mph 48 % 0.00 in
11:56 59.0 °F 38.8 °F 30.03 in North 0.7 mph 2.3 mph 47 % 0.00 in
12:01 59.0 °F 40.4 °F 30.04 in North 1.5 mph 3.5 mph 50 % 0.00 in
12:06 59.2 °F 39.5 °F 30.03 in North 2.7 mph 3.5 mph 48 % 0.00 in
12:11 59.5 °F 39.2 °F 30.03 in North 2.0 mph 3.5 mph 47 % 0.00 in
12:16 59.8 °F 39.0 °F 30.03 in North 1.7 mph 4.6 mph 46 % 0.00 in
12:21 60.2 °F 40.4 °F 30.03 in North 0.4 mph 2.3 mph 48 % 0.00 in
12:26 60.4 °F 37.8 °F 30.04 in North 1.6 mph 3.5 mph 43 % 0.00 in
12:31 60.7 °F 39.2 °F 30.03 in North 2.4 mph 4.0 mph 45 % 0.00 in
12:36 61.0 °F 38.9 °F 30.03 in North 0.2 mph 3.5 mph 44 % 0.00 in
12:41 61.2 °F 38.5 °F 30.04 in North 2.0 mph 3.5 mph 43 % 0.00 in
12:47 61.3 °F 39.8 °F 30.03 in North 1.4 mph 2.3 mph 45 % 0.00 in
12:52 61.4 °F 38.7 °F 30.03 in NNE 1.9 mph 3.5 mph 43 % 0.00 in
12:57 61.5 °F 38.8 °F 30.03 in North 1.5 mph 3.5 mph 43 % 0.00 in
13:07 61.5 °F 38.2 °F 30.02 in North 1.3 mph 2.3 mph 42 % 0.00 in
13:12 61.6 °F 37.7 °F 30.02 in North 2.4 mph 3.5 mph 41 % 0.00 in
13:17 61.6 °F 37.7 °F 30.02 in North 1.8 mph 3.5 mph 41 % 0.00 in
13:22 61.9 °F 39.1 °F 30.02 in North 0.9 mph 1.2 mph 43 % 0.00 in
13:27 62.0 °F 37.4 °F 30.02 in North 1.7 mph 3.5 mph 40 % 0.00 in
13:32 62.1 °F 39.9 °F 30.02 in North 1.2 mph 3.5 mph 44 % 0.00 in
13:38 62.2 °F 37.6 °F 30.02 in North 0.8 mph 2.3 mph 40 % 0.00 in
13:43 62.2 °F 36.3 °F 30.01 in NNE 0.8 mph 2.3 mph 38 % 0.00 in
13:48 62.2 °F 38.2 °F 30.01 in North 0.5 mph 2.3 mph 41 % 0.00 in
13:53 62.3 °F 37.7 °F 30.02 in North 1.7 mph 3.5 mph 40 % 0.00 in
13:58 62.4 °F 38.4 °F 30.01 in NNE 0.1 mph 1.2 mph 41 % 0.00 in
14:03 62.6 °F 37.9 °F 30.01 in NNE 1.7 mph 3.5 mph 40 % 0.00 in
14:08 62.6 °F 37.3 °F 30.01 in NNE 0.7 mph 1.2 mph 39 % 0.00 in
14:13 62.7 °F 38.0 °F 30.01 in NNE 0.2 mph 2.3 mph 40 % 0.00 in
14:18 62.7 °F 37.4 °F 30.01 in NE 1.3 mph 2.3 mph 39 % 0.00 in
14:23 62.5 °F 36.5 °F 30.01 in NE 1.7 mph 3.5 mph 38 % 0.00 in
14:29 62.2 °F 36.9 °F 30.01 in NE 1.0 mph 2.3 mph 39 % 0.00 in
14:34 61.9 °F 37.3 °F 30.01 in NE 2.1 mph 3.5 mph 40 % 0.00 in
14:39 61.6 °F 37.0 °F 30.01 in NE 1.3 mph 2.3 mph 40 % 0.00 in
14:44 61.4 °F 37.5 °F 30.01 in NE 1.7 mph 3.0 mph 41 % 0.00 in
14:49 61.2 °F 36.7 °F 30.01 in NE 1.8 mph 3.5 mph 40 % 0.00 in
14:54 61.1 °F 37.2 °F 30.01 in NE 1.0 mph 1.2 mph 41 % 0.00 in
14:59 60.9 °F 35.8 °F 30.01 in NE 1.2 mph 2.3 mph 39 % 0.00 in
15:04 60.9 °F 37.0 °F 30.01 in NE 0.1 mph 1.2 mph 41 % 0.00 in
15:09 61.0 °F 35.8 °F 30.01 in Calm     39 % 0.00 in
15:14 61.1 °F 36.6 °F 30.01 in NE 0.9 mph 2.3 mph 40 % 0.00 in
15:20 61.1 °F 35.9 °F 30.01 in NE 1.8 mph 3.5 mph 39 % 0.00 in
15:25 60.8 °F 36.9 °F 30.01 in NE 1.3 mph 3.5 mph 41 % 0.00 in
15:30 60.8 °F 36.9 °F 30.01 in NE 0.9 mph 2.3 mph 41 % 0.00 in
15:35 60.7 °F 36.2 °F 30.01 in NE 0.4 mph 2.3 mph 40 % 0.00 in
15:40 60.7 °F 36.8 °F 30.01 in ENE 2.5 mph 3.5 mph 41 % 0.00 in
15:45 60.7 °F 36.2 °F 30.01 in ENE 0.2 mph 1.2 mph 40 % 0.00 in
15:50 60.7 °F 35.6 °F 30.02 in ENE 1.0 mph 2.0 mph 39 % 0.00 in
15:55 60.7 °F 36.8 °F 30.02 in ENE 1.1 mph 3.0 mph 41 % 0.00 in
16:00 60.7 °F 34.3 °F 30.02 in ENE 2.4 mph 3.5 mph 37 % 0.00 in
16:05 60.6 °F 33.5 °F 30.02 in ENE 1.3 mph 2.3 mph 36 % 0.00 in
16:11 60.5 °F 33.4 °F 30.02 in ENE 1.9 mph 3.5 mph 36 % 0.00 in
16:16 60.5 °F 34.7 °F 30.02 in ENE 0.8 mph 2.3 mph 38 % 0.00 in
16:21 60.6 °F 33.5 °F 30.03 in Calm   1.2 mph 36 % 0.00 in
16:26 60.6 °F 32.1 °F 30.03 in ENE 1.0 mph 2.3 mph 34 % 0.00 in
16:31 60.7 °F 32.9 °F 30.03 in ENE 1.7 mph 3.5 mph 35 % 0.00 in
16:36 60.7 °F 31.4 °F 30.03 in ENE 1.5 mph 3.0 mph 33 % 0.00 in
16:41 60.8 °F 34.3 °F 30.03 in ENE 1.0 mph 2.3 mph 37 % 0.00 in
16:46 60.8 °F 33.0 °F 30.03 in ENE 0.7 mph 2.3 mph 35 % 0.00 in
16:51 60.8 °F 31.5 °F 30.03 in East 1.0 mph 2.3 mph 33 % 0.00 in
16:56 60.8 °F 32.2 °F 30.03 in East 0.2 mph 2.3 mph 34 % 0.00 in
17:02 60.8 °F 33.7 °F 30.03 in East 1.4 mph 2.3 mph 36 % 0.00 in
17:07 60.7 °F 33.6 °F 30.03 in East 1.6 mph 3.5 mph 36 % 0.00 in
17:17 60.6 °F 34.8 °F 30.03 in Calm   1.2 mph 38 % 0.00 in
17:22 60.6 °F 33.5 °F 30.02 in East 0.2 mph 1.2 mph 36 % 0.00 in
17:27 60.5 °F 35.4 °F 30.03 in East 0.3 mph 1.2 mph 39 % 0.00 in
17:32 60.5 °F 34.1 °F 30.03 in Calm     37 % 0.00 in
17:37 60.4 °F 32.6 °F 30.03 in Calm   1.2 mph 35 % 0.00 in
17:42 60.3 °F 33.2 °F 30.03 in East 0.1 mph 1.2 mph 36 % 0.00 in
17:47 60.3 °F 33.2 °F 30.03 in Calm     36 % 0.00 in
17:53 60.2 °F 31.7 °F 30.03 in Calm   1.2 mph 34 % 0.00 in
17:58 60.2 °F 31.7 °F 30.04 in East 1.4 mph 3.5 mph 34 % 0.00 in
18:03 60.1 °F 30.9 °F 30.03 in East 1.4 mph 3.5 mph 33 % 0.00 in
18:08 60.1 °F 30.9 °F 30.04 in East 0.4 mph 1.2 mph 33 % 0.00 in
18:13 60.0 °F 30.8 °F 30.04 in East 0.7 mph 1.2 mph 33 % 0.00 in
18:18 60.0 °F 30.8 °F 30.04 in Calm     33 % 0.00 in
18:23 60.0 °F 30.8 °F 30.04 in East 0.5 mph 2.3 mph 33 % 0.00 in
18:28 59.9 °F 31.4 °F 30.04 in Calm   2.3 mph 34 % 0.00 in
18:38 59.8 °F 31.3 °F 30.04 in East 0.9 mph 1.2 mph 34 % 0.00 in
18:44 59.7 °F 31.3 °F 30.04 in East 0.1 mph 2.3 mph 34 % 0.00 in
18:49 59.5 °F 30.3 °F 30.05 in ESE 0.6 mph 3.5 mph 33 % 0.00 in
18:54 59.4 °F 31.0 °F 30.05 in SSW 2.0 mph 4.6 mph 34 % 0.00 in
19:09 58.8 °F 32.6 °F 30.05 in South 3.2 mph 4.0 mph 37 % 0.00 in
19:14 58.6 °F 32.4 °F 30.05 in SE 2.9 mph 4.6 mph 37 % 0.00 in
19:19 58.3 °F 32.8 °F 30.05 in SE 1.2 mph 4.0 mph 38 % 0.00 in
19:29 57.9 °F 33.1 °F 30.06 in SSE 2.3 mph 4.6 mph 39 % 0.00 in
19:40 57.5 °F 34.0 °F 30.06 in SSE 1.5 mph 3.5 mph 41 % 0.00 in
19:45 57.3 °F 34.4 °F 30.06 in SSE 0.6 mph 2.3 mph 42 % 0.00 in
19:50 57.1 °F 34.2 °F 30.07 in SSE 3.3 mph 4.6 mph 42 % 0.00 in
19:55 56.9 °F 34.6 °F 30.07 in SSE 2.3 mph 3.5 mph 43 % 0.00 in
20:00 56.7 °F 34.4 °F 30.07 in South 3.7 mph 6.9 mph 43 % 0.00 in
20:05 56.5 °F 34.8 °F 30.06 in SSE 0.5 mph 2.3 mph 44 % 0.00 in
20:10 56.3 °F 35.2 °F 30.06 in South 2.2 mph 6.9 mph 45 % 0.00 in
20:15 56.2 °F 35.1 °F 30.06 in SSE 1.8 mph 3.5 mph 45 % 0.00 in
20:20 56.0 °F 34.9 °F 30.07 in South 1.5 mph 4.6 mph 45 % 0.00 in
20:26 55.8 °F 35.3 °F 30.07 in SSE 1.9 mph 4.6 mph 46 % 0.00 in
20:31 55.7 °F 35.2 °F 30.07 in SSW 1.5 mph 3.5 mph 46 % 0.00 in
20:36 55.6 °F 35.7 °F 30.07 in South 3.7 mph 6.9 mph 47 % 0.00 in
20:41 55.4 °F 35.5 °F 30.08 in SSE 1.3 mph 3.5 mph 47 % 0.00 in
20:46 55.3 °F 35.4 °F 30.08 in SSE 2.1 mph 4.6 mph 47 % 0.00 in
20:51 55.2 °F 35.8 °F 30.08 in SSE 2.8 mph 5.0 mph 48 % 0.00 in
20:56 55.1 °F 36.3 °F 30.08 in SSE 2.4 mph 3.5 mph 49 % 0.00 in
21:01 55.0 °F 36.2 °F 30.08 in SSE 3.5 mph 5.0 mph 49 % 0.00 in
21:06 54.9 °F 36.1 °F 30.08 in SSE 4.3 mph 6.9 mph 49 % 0.00 in
21:11 54.7 °F 36.4 °F 30.08 in SSE 2.6 mph 4.0 mph 50 % 0.00 in
21:17 54.6 °F 36.8 °F 30.08 in SSE 1.2 mph 4.6 mph 51 % 0.00 in
21:22 54.5 °F 36.7 °F 30.08 in East 3.1 mph 6.9 mph 51 % 0.00 in
21:27 54.4 °F 36.6 °F 30.08 in South 1.7 mph 3.5 mph 51 % 0.00 in
21:32 54.3 °F 36.5 °F 30.08 in SSW 2.8 mph 6.0 mph 51 % 0.00 in
21:37 54.3 °F 36.5 °F 30.08 in SSE 3.0 mph 5.8 mph 51 % 0.00 in
21:42 54.2 °F 35.9 °F 30.08 in SSE 6.1 mph 9.2 mph 50 % 0.00 in
21:47 54.1 °F 35.9 °F 30.08 in South 7.4 mph 9.2 mph 50 % 0.00 in
21:52 54.1 °F 35.3 °F 30.08 in South 3.8 mph 8.1 mph 49 % 0.00 in
21:57 54.0 °F 34.7 °F 30.08 in SSE 5.9 mph 6.9 mph 48 % 0.00 in
22:02 54.0 °F 34.7 °F 30.08 in SSE 3.0 mph 5.8 mph 48 % 0.00 in
22:08 53.9 °F 35.2 °F 30.08 in SSE 3.6 mph 5.8 mph 49 % 0.00 in
22:13 53.8 °F 34.6 °F 30.09 in SE 4.3 mph 7.0 mph 48 % 0.00 in
22:18 53.6 °F 34.9 °F 30.09 in SE 2.2 mph 4.0 mph 49 % 0.00 in
22:23 53.5 °F 35.3 °F 30.09 in SSE 1.4 mph 3.5 mph 50 % 0.00 in
22:28 53.3 °F 35.1 °F 30.09 in SSE 3.6 mph 6.0 mph 50 % 0.00 in
22:33 53.1 °F 35.4 °F 30.09 in SSE 2.5 mph 3.5 mph 51 % 0.00 in
22:43 52.8 °F 35.6 °F 30.09 in SSE 2.6 mph 5.0 mph 52 % 0.00 in
22:48 52.6 °F 35.5 °F 30.10 in SSE 2.1 mph 4.6 mph 52 % 0.00 in
22:54 52.5 °F 35.8 °F 30.10 in SSE 2.9 mph 3.5 mph 53 % 0.00 in
22:59 52.4 °F 35.8 °F 30.10 in SSE 0.3 mph 3.5 mph 53 % 0.00 in
23:04 52.3 °F 35.7 °F 30.10 in SE 1.0 mph 3.5 mph 53 % 0.00 in
23:09 52.3 °F 35.7 °F 30.10 in Calm     53 % 0.00 in
23:14 52.2 °F 35.6 °F 30.10 in Calm     53 % 0.00 in
23:19 52.1 °F 35.0 °F 30.10 in SSE 0.2 mph 2.3 mph 52 % 0.00 in
23:24 52.0 °F 35.4 °F 30.10 in Calm     53 % 0.00 in
23:29 51.9 °F 35.3 °F 30.10 in SE 1.6 mph 3.0 mph 53 % 0.00 in
23:34 51.8 °F 35.2 °F 30.10 in Calm     53 % 0.00 in
23:39 51.7 °F 35.1 °F 30.10 in SE 0.7 mph 4.0 mph 53 % 0.00 in
23:45 51.6 °F 34.5 °F 30.10 in South 3.3 mph 5.8 mph 52 % 0.00 in
23:50 51.5 °F 34.0 °F 30.10 in SSE 3.7 mph 9.0 mph 51 % 0.00 in
23:55 51.5 °F 34.0 °F 30.10 in SSE 2.5 mph 5.8 mph 51 % 0.00 in
Crab Meadow Weather
Compliments of Weather Underground - 2.75 mb

Script developed by  Jim McMurry - jmcmurry@mwt.net Adapted for the template by  Wim van der Kuil - Leuven-Template.eu

Astronomy: It takes 16 million horsepower to break loose from the Earth's gravitational pull.